createdAt,value
2022-11-21T00:01:25.497Z,-0.21
2022-11-21T00:03:55.921Z,-0.17
2022-11-21T00:06:24.711Z,-0.16
2022-11-21T00:08:53.876Z,-0.19
2022-11-21T00:11:22.607Z,-0.16
2022-11-21T00:13:51.448Z,-0.24
2022-11-21T00:16:20.238Z,-0.20
2022-11-21T00:18:48.974Z,-0.20
2022-11-21T00:21:20.783Z,-0.22
2022-11-21T00:23:49.977Z,-0.29
2022-11-21T00:26:18.758Z,-0.31
2022-11-21T00:28:47.882Z,-0.27
2022-11-21T00:31:25.773Z,-0.18
2022-11-21T00:33:54.953Z,-0.17
2022-11-21T00:36:25.117Z,-0.10
2022-11-21T00:38:53.856Z,-0.05
2022-11-21T00:41:22.655Z,-0.03
2022-11-21T00:43:51.365Z,0.01
2022-11-21T00:46:20.054Z,-0.04
2022-11-21T00:48:48.727Z,-0.04
2022-11-21T00:51:17.522Z,0.02
2022-11-21T00:53:47.866Z,0.08
2022-11-21T00:56:16.970Z,0.12
2022-11-21T00:58:45.714Z,0.15
2022-11-21T01:01:16.887Z,0.11
2022-11-21T01:03:46.346Z,0.11
2022-11-21T01:06:16.705Z,0.04
2022-11-21T01:08:47.163Z,0.03
2022-11-21T01:11:18.845Z,-0.03
2022-11-21T01:13:48.849Z,0.01
2022-11-21T01:16:20.518Z,0.04
2022-11-21T01:18:49.691Z,0.10
2022-11-21T01:21:21.532Z,0.02
2022-11-21T01:23:52.193Z,0.09
2022-11-21T01:26:24.296Z,0.12
2022-11-21T01:28:53.731Z,0.16
2022-11-21T01:31:25.058Z,0.19
2022-11-21T01:33:55.137Z,0.22
2022-11-21T01:36:27.001Z,0.26
2022-11-21T01:39:00.863Z,0.29
2022-11-21T01:41:35.927Z,0.33
2022-11-21T01:44:16.247Z,0.32
2022-11-21T01:46:45.042Z,0.35
2022-11-21T01:49:19.174Z,0.38
2022-11-21T01:51:57.304Z,0.42
2022-11-21T01:54:34.988Z,0.43
2022-11-21T01:57:09.925Z,0.46
2022-11-21T01:59:46.904Z,0.49
2022-11-21T02:02:21.782Z,0.50
2022-11-21T02:04:53.407Z,0.33
2022-11-21T02:07:24.920Z,0.32
2022-11-21T02:10:01.009Z,0.33
2022-11-21T02:12:39.284Z,0.43
2022-11-21T02:15:09.863Z,0.49
2022-11-21T02:17:38.669Z,0.55
2022-11-21T02:20:14.535Z,0.60
2022-11-21T02:22:54.648Z,0.64
2022-11-21T02:25:28.495Z,0.67
2022-11-21T02:28:02.745Z,0.70
2022-11-21T02:30:36.520Z,0.73
2022-11-21T02:33:06.134Z,0.72
2022-11-21T02:35:35.518Z,0.76
2022-11-21T02:38:11.384Z,0.83
2022-11-21T02:40:49.892Z,0.85
2022-11-21T02:43:24.729Z,0.87
2022-11-21T02:45:53.503Z,0.89
2022-11-21T02:48:22.298Z,0.94
2022-11-21T02:50:51.070Z,0.93
2022-11-21T02:53:20.973Z,0.95
2022-11-21T02:55:51.183Z,0.96
2022-11-21T02:58:19.934Z,1.00
2022-11-21T03:00:48.651Z,1.03
2022-11-21T03:03:17.670Z,1.06
2022-11-21T03:05:46.418Z,1.09
2022-11-21T03:08:15.159Z,1.10
2022-11-21T03:10:43.940Z,1.14
2022-11-21T03:13:15.126Z,1.15
2022-11-21T03:15:43.929Z,1.12
2022-11-21T03:18:12.700Z,1.14
2022-11-21T03:20:41.582Z,1.16
2022-11-21T03:23:10.275Z,1.18
2022-11-21T03:25:38.980Z,1.18
2022-11-21T03:28:07.819Z,1.19
2022-11-21T03:30:38.079Z,1.20
2022-11-21T03:33:06.830Z,1.20
2022-11-21T03:35:35.551Z,1.20
2022-11-21T03:38:04.408Z,1.19
2022-11-21T03:40:33.157Z,1.19
2022-11-21T03:43:07.908Z,1.20
2022-11-21T03:45:38.040Z,1.20
2022-11-21T03:48:07.685Z,1.23
2022-11-21T03:50:36.572Z,1.24
2022-11-21T03:53:05.384Z,1.25
2022-11-21T03:55:47.412Z,1.26
2022-11-21T03:58:16.236Z,1.26
2022-11-21T04:00:48.987Z,1.28
2022-11-21T04:03:26.663Z,1.27
2022-11-21T04:05:55.467Z,1.25
2022-11-21T04:08:24.183Z,1.19
2022-11-21T04:10:55.708Z,1.23
2022-11-21T04:13:24.580Z,1.25
2022-11-21T04:15:54.837Z,1.28
2022-11-21T04:18:23.776Z,1.30
2022-11-21T04:20:58.981Z,1.31
2022-11-21T04:23:29.099Z,1.31
2022-11-21T04:25:58.199Z,1.33
2022-11-21T04:28:27.578Z,1.37
2022-11-21T04:31:05.753Z,1.36
2022-11-21T04:33:37.627Z,1.36
2022-11-21T04:36:06.881Z,1.37
2022-11-21T04:38:35.704Z,1.39
2022-11-21T04:41:04.905Z,1.37
2022-11-21T04:43:33.762Z,1.35
2022-11-21T04:46:03.994Z,1.34
2022-11-21T04:48:33.789Z,1.34
2022-11-21T04:51:02.517Z,1.38
2022-11-21T04:53:31.232Z,1.40
2022-11-21T04:56:00.419Z,1.41
2022-11-21T04:58:29.297Z,1.36
2022-11-21T05:00:58.124Z,1.42
2022-11-21T05:03:28.268Z,1.43
2022-11-21T05:05:57.015Z,1.43
2022-11-21T05:08:25.795Z,1.41
2022-11-21T05:11:12.044Z,1.40
2022-11-21T05:13:40.751Z,1.40
2022-11-21T05:16:09.576Z,1.44
2022-11-21T05:18:39.934Z,1.42
2022-11-21T05:21:08.776Z,1.43
2022-11-21T05:23:37.543Z,1.46
2022-11-21T05:26:06.314Z,1.47
2022-11-21T05:28:35.128Z,1.51
2022-11-21T05:31:03.896Z,1.53
2022-11-21T05:33:32.631Z,1.56
2022-11-21T05:36:11.882Z,1.56
2022-11-21T05:38:41.702Z,1.53
2022-11-21T05:41:11.020Z,1.56
2022-11-21T05:43:47.895Z,1.55
2022-11-21T05:46:19.735Z,1.56
2022-11-21T05:48:50.809Z,1.61
2022-11-21T05:51:22.035Z,1.56
2022-11-21T05:53:51.009Z,1.57
2022-11-21T05:56:20.980Z,1.63
2022-11-21T05:58:49.730Z,1.70
2022-11-21T06:01:39.237Z,1.75
2022-11-21T06:04:07.462Z,1.76
2022-11-21T06:06:38.162Z,1.79
2022-11-21T06:09:06.963Z,1.83
2022-11-21T06:11:35.778Z,1.87
2022-11-21T06:14:08.804Z,1.86
2022-11-21T06:16:37.606Z,1.89
2022-11-21T06:19:06.486Z,1.88
2022-11-21T06:21:37.414Z,1.94
2022-11-21T06:24:07.974Z,1.97
2022-11-21T06:26:36.772Z,2.01
2022-11-21T06:29:05.489Z,2.05
2022-11-21T06:31:34.266Z,2.07
2022-11-21T06:34:03.357Z,2.02
2022-11-21T06:36:32.156Z,1.98
2022-11-21T06:39:02.418Z,2.01
2022-11-21T06:41:32.081Z,2.03
2022-11-21T06:44:01.967Z,1.97
2022-11-21T06:46:31.162Z,1.97
2022-11-21T06:48:59.947Z,1.94
2022-11-21T06:51:28.693Z,1.93
2022-11-21T06:54:00.101Z,1.98
2022-11-21T06:56:32.646Z,1.92
2022-11-21T06:59:01.631Z,1.91
2022-11-21T07:01:30.373Z,1.91
2022-11-21T07:03:59.236Z,1.86
2022-11-21T07:06:28.044Z,1.82
2022-11-21T07:11:47.169Z,1.87
2022-11-21T07:14:14.872Z,1.76
2022-11-21T07:16:43.650Z,1.78
2022-11-21T07:19:13.073Z,1.80
2022-11-21T07:21:43.166Z,1.73
2022-11-21T07:24:12.231Z,1.74
2022-11-21T07:26:40.942Z,1.77
2022-11-21T07:29:11.073Z,1.75
2022-11-21T07:31:39.802Z,1.73
2022-11-21T07:34:08.556Z,1.72
2022-11-21T07:36:37.418Z,1.66
2022-11-21T07:39:06.651Z,1.58
2022-11-21T07:41:35.402Z,1.50
2022-11-21T07:44:04.387Z,1.52
2022-11-21T07:46:34.629Z,1.57
2022-11-21T07:49:03.927Z,1.56
2022-11-21T07:51:32.837Z,1.58
2022-11-21T07:54:01.595Z,1.61
2022-11-21T07:56:30.321Z,1.51
2022-11-21T07:58:59.135Z,1.52
2022-11-21T08:01:28.128Z,1.52
2022-11-21T08:03:58.282Z,1.53
2022-11-21T08:06:26.994Z,1.55
2022-11-21T08:08:56.081Z,1.51
2022-11-21T08:11:25.900Z,1.48
2022-11-21T08:13:54.625Z,1.44
2022-11-21T08:16:28.032Z,1.41
2022-11-21T08:18:58.250Z,1.31
2022-11-21T08:21:27.628Z,1.34
2022-11-21T08:23:56.505Z,1.35
2022-11-21T08:26:25.261Z,1.30
2022-11-21T08:28:59.589Z,1.29
2022-11-21T08:31:28.823Z,1.25
2022-11-21T08:33:59.648Z,1.29
2022-11-21T08:36:28.480Z,1.31
2022-11-21T08:38:57.317Z,1.26
2022-11-21T08:41:43.831Z,1.30
2022-11-21T08:44:14.232Z,1.31
2022-11-21T08:46:43.243Z,1.28
2022-11-21T08:49:13.373Z,1.27
2022-11-21T08:51:42.137Z,1.31
2022-11-21T08:54:11.353Z,1.30
2022-11-21T08:56:40.123Z,1.30
2022-11-21T08:59:08.882Z,1.29
2022-11-21T09:01:37.653Z,1.26
2022-11-21T09:04:06.901Z,1.11
2022-11-21T09:06:37.741Z,1.05
2022-11-21T09:09:07.777Z,1.00
2022-11-21T09:11:38.135Z,0.93
2022-11-21T09:14:24.215Z,0.91
2022-11-21T09:17:10.925Z,0.93
2022-11-21T09:19:39.724Z,0.99
2022-11-21T09:22:09.865Z,1.06
2022-11-21T09:24:38.623Z,1.11
2022-11-21T09:27:10.094Z,1.17
2022-11-21T09:29:39.010Z,1.17
2022-11-21T09:32:07.983Z,1.25
2022-11-21T09:34:36.712Z,1.26
2022-11-21T09:37:05.456Z,1.23
2022-11-21T09:39:35.736Z,1.16
2022-11-21T09:42:48.331Z,1.11
2022-11-21T09:45:24.738Z,1.11
2022-11-21T09:47:54.826Z,1.14
2022-11-21T09:50:32.416Z,1.15
2022-11-21T09:53:08.518Z,1.03
2022-11-21T09:55:48.006Z,1.19
2022-11-21T09:58:27.883Z,1.20
2022-11-21T10:00:57.030Z,1.16
2022-11-21T10:03:32.886Z,1.04
2022-11-21T10:06:14.014Z,1.09
2022-11-21T10:08:56.683Z,1.17
2022-11-21T10:11:58.444Z,1.18
2022-11-21T10:14:48.128Z,1.19
2022-11-21T10:17:32.927Z,1.28
2022-11-21T10:20:32.235Z,1.29
2022-11-21T10:23:22.904Z,1.37
2022-11-21T10:25:58.363Z,1.51
2022-11-21T10:28:39.859Z,1.53
2022-11-21T10:31:16.160Z,1.42
2022-11-21T10:33:45.545Z,1.36
2022-11-21T10:36:26.156Z,1.36
2022-11-21T10:39:01.884Z,1.44
2022-11-21T10:41:47.500Z,1.54
2022-11-21T10:44:45.279Z,1.47
2022-11-21T10:47:27.425Z,1.38
2022-11-21T10:50:14.244Z,1.47
2022-11-21T10:52:50.500Z,1.46
2022-11-21T10:55:20.213Z,1.44
2022-11-21T10:57:51.219Z,1.38
2022-11-21T11:00:29.734Z,1.50
2022-11-21T11:03:17.194Z,1.55
2022-11-21T11:05:58.983Z,1.54
2022-11-21T11:08:31.878Z,1.46
2022-11-21T11:11:07.878Z,1.54
2022-11-21T11:13:58.225Z,1.64
2022-11-21T11:16:31.003Z,1.66
2022-11-21T11:19:03.391Z,1.75
2022-11-21T11:21:45.160Z,1.69
2022-11-21T11:24:30.144Z,1.77
2022-11-21T11:27:02.729Z,1.64
2022-11-21T11:29:35.383Z,1.61
2022-11-21T11:32:21.562Z,1.71
2022-11-21T11:35:01.217Z,1.69
2022-11-21T11:37:41.113Z,1.73
2022-11-21T11:40:23.117Z,1.76
2022-11-21T11:43:27.741Z,1.69
2022-11-21T11:46:47.129Z,1.76
2022-11-21T11:49:31.700Z,1.73
2022-11-21T11:52:07.309Z,1.77
2022-11-21T11:54:47.757Z,1.81
2022-11-21T11:57:18.301Z,1.77
2022-11-21T11:59:55.245Z,1.77
2022-11-21T12:02:34.903Z,1.86
2022-11-21T12:05:16.771Z,1.84
2022-11-21T12:11:14.610Z,1.93
2022-11-21T12:13:45.300Z,1.93
2022-11-21T12:16:16.578Z,1.94
2022-11-21T12:18:56.037Z,1.91
2022-11-21T12:21:26.647Z,1.99
2022-11-21T12:23:58.093Z,2.01
2022-11-21T12:26:49.714Z,1.97
2022-11-21T12:29:38.592Z,2.00
2022-11-21T12:32:30.405Z,1.94
2022-11-21T12:35:40.261Z,1.87
2022-11-21T12:38:33.321Z,1.91
2022-11-21T12:41:33.317Z,1.85
2022-11-21T12:44:22.060Z,1.89
2022-11-21T12:47:14.923Z,1.83
2022-11-21T12:50:13.130Z,1.86
2022-11-21T12:53:05.893Z,1.82
2022-11-21T12:55:40.908Z,1.86
2022-11-21T12:58:28.929Z,1.81
2022-11-21T13:01:22.266Z,1.85
2022-11-21T13:04:01.805Z,1.91
2022-11-21T13:06:35.895Z,1.93
2022-11-21T13:09:13.457Z,1.84
2022-11-21T13:12:01.748Z,1.81
2022-11-21T13:14:42.107Z,1.90
2022-11-21T13:17:42.710Z,1.94
2022-11-21T13:20:24.811Z,1.94
2022-11-21T13:22:57.254Z,1.99
2022-11-21T13:25:49.514Z,2.05
2022-11-21T13:28:36.434Z,2.08
2022-11-21T13:31:30.800Z,1.94
2022-11-21T13:34:00.368Z,2.02
2022-11-21T13:36:43.894Z,2.06
2022-11-21T13:39:39.086Z,2.10
2022-11-21T13:42:33.488Z,2.13
2022-11-21T13:45:43.314Z,2.14
2022-11-21T13:48:59.397Z,2.17
2022-11-21T13:51:56.478Z,2.18
2022-11-21T13:55:20.285Z,2.20
2022-11-21T13:58:12.791Z,2.05
2022-11-21T14:01:08.221Z,1.96
2022-11-21T14:04:07.408Z,2.01
2022-11-21T14:06:43.442Z,1.97
2022-11-21T14:09:29.300Z,1.88
2022-11-21T14:12:02.344Z,1.90
2022-11-21T14:14:38.412Z,1.85
2022-11-21T14:17:35.338Z,1.86
2022-11-21T14:20:20.169Z,1.84
2022-11-21T14:22:58.789Z,1.79
2022-11-21T14:25:37.989Z,1.84
2022-11-21T14:28:13.132Z,1.91
2022-11-21T14:30:44.390Z,1.77
2022-11-21T14:33:26.018Z,1.85
2022-11-21T14:35:59.363Z,1.94
2022-11-21T14:38:30.725Z,1.97
2022-11-21T14:41:30.022Z,2.06
2022-11-21T14:44:22.038Z,2.12
2022-11-21T14:46:52.316Z,2.15
2022-11-21T14:49:30.487Z,2.17
2022-11-21T14:52:22.514Z,2.15
2022-11-21T14:57:46.252Z,2.09
2022-11-21T15:00:58.136Z,2.07
2022-11-21T15:03:22.823Z,2.06
2022-11-21T15:06:05.216Z,2.10
2022-11-21T15:11:31.746Z,2.03
2022-11-21T15:14:16.507Z,1.95
2022-11-21T15:16:48.020Z,1.91
2022-11-21T15:19:23.325Z,1.91
2022-11-21T15:21:58.159Z,1.90
2022-11-21T15:24:40.568Z,1.75
2022-11-21T15:27:34.130Z,1.70
2022-11-21T15:30:08.420Z,1.66
2022-11-21T15:33:02.199Z,1.58
2022-11-21T15:35:47.437Z,1.72
2022-11-21T15:38:48.234Z,1.81
2022-11-21T15:41:30.563Z,1.69
2022-11-21T15:44:22.248Z,1.70
2022-11-21T15:46:53.719Z,1.77
2022-11-21T15:49:32.870Z,1.74
2022-11-21T15:52:10.208Z,1.87
2022-11-21T15:54:40.642Z,1.94
2022-11-21T15:57:10.557Z,1.99
2022-11-21T15:59:39.752Z,2.04
2022-11-21T16:02:13.568Z,2.04
2022-11-21T16:04:42.886Z,1.99
2022-11-21T16:07:11.757Z,2.01
2022-11-21T16:09:43.224Z,2.05
2022-11-21T16:12:11.979Z,2.03
2022-11-21T16:14:40.885Z,2.07
2022-11-21T16:17:10.074Z,2.08
2022-11-21T16:19:39.316Z,2.13
2022-11-21T16:22:08.358Z,2.10
2022-11-21T16:24:37.358Z,2.11
2022-11-21T16:27:07.596Z,1.93
2022-11-21T16:29:36.537Z,1.97
2022-11-21T16:32:05.639Z,1.98
2022-11-21T16:34:34.479Z,1.89
2022-11-21T16:37:07.316Z,1.85
2022-11-21T16:39:36.545Z,1.83
2022-11-21T16:42:06.876Z,1.87
2022-11-21T16:44:35.710Z,1.75
2022-11-21T16:47:08.269Z,1.87
2022-11-21T16:49:42.904Z,1.72
2022-11-21T16:52:12.577Z,1.70
2022-11-21T16:54:41.544Z,1.70
2022-11-21T16:57:11.767Z,1.77
2022-11-21T16:59:40.599Z,1.75
2022-11-21T17:02:10.669Z,1.77
2022-11-21T17:04:39.553Z,1.78
2022-11-21T17:07:08.336Z,1.77
2022-11-21T17:09:37.196Z,1.78
2022-11-21T17:12:06.911Z,1.69
2022-11-21T17:14:37.219Z,1.69
2022-11-21T17:17:06.079Z,1.63
2022-11-21T17:19:34.947Z,1.60
2022-11-21T17:22:05.126Z,1.54
2022-11-21T17:24:43.611Z,1.58
2022-11-21T17:27:12.813Z,1.65
2022-11-21T17:29:43.914Z,1.65
2022-11-21T17:32:13.572Z,1.72
2022-11-21T17:34:43.428Z,1.70
2022-11-21T17:37:13.305Z,1.72
2022-11-21T17:39:42.374Z,1.76
2022-11-21T17:42:11.231Z,1.76
2022-11-21T17:44:40.793Z,1.63
2022-11-21T17:47:13.075Z,1.66
2022-11-21T17:49:42.305Z,1.72
2022-11-21T17:52:12.601Z,1.71
2022-11-21T17:54:42.530Z,1.75
2022-11-21T17:57:14.229Z,1.67
2022-11-21T17:59:45.087Z,1.63
2022-11-21T18:02:15.634Z,1.65
2022-11-21T18:04:47.985Z,1.70
2022-11-21T18:07:17.667Z,1.71
2022-11-21T18:09:48.166Z,1.72
2022-11-21T18:12:19.859Z,1.64
2022-11-21T18:14:50.082Z,1.60
2022-11-21T18:17:20.677Z,1.59
2022-11-21T18:19:53.183Z,1.61
2022-11-21T18:22:29.285Z,1.54
2022-11-21T18:24:58.677Z,1.55
2022-11-21T18:27:29.585Z,1.58
2022-11-21T18:29:58.400Z,1.53
2022-11-21T18:32:29.854Z,1.56
2022-11-21T18:35:02.114Z,1.50
2022-11-21T18:37:31.754Z,1.52
2022-11-21T18:40:00.513Z,1.52
2022-11-21T18:42:30.227Z,1.50
2022-11-21T18:45:02.121Z,1.48
2022-11-21T18:47:32.475Z,1.48
2022-11-21T18:50:01.873Z,1.47
2022-11-21T18:52:34.853Z,1.38
2022-11-21T18:55:04.708Z,1.36
2022-11-21T18:57:34.087Z,1.36
2022-11-21T19:00:03.523Z,1.27
2022-11-21T19:02:33.647Z,1.31
2022-11-21T19:05:02.641Z,1.30
2022-11-21T19:07:31.473Z,1.27
2022-11-21T19:10:20.792Z,1.26
2022-11-21T19:12:50.495Z,1.23
2022-11-21T19:15:19.382Z,1.26
2022-11-21T19:17:49.577Z,1.22
2022-11-21T19:20:18.908Z,1.11
2022-11-21T19:22:47.643Z,1.19
2022-11-21T19:25:16.534Z,1.12
2022-11-21T19:27:45.396Z,1.15
2022-11-21T19:30:15.474Z,1.15
2022-11-21T19:32:44.791Z,1.17
2022-11-21T19:35:15.140Z,1.12
2022-11-21T19:37:44.238Z,1.01
2022-11-21T19:40:14.574Z,1.07
2022-11-21T19:42:43.492Z,1.02
2022-11-21T19:45:12.698Z,0.96
2022-11-21T19:47:41.813Z,1.01
2022-11-21T19:50:11.675Z,1.02
2022-11-21T19:52:42.050Z,1.02
2022-11-21T19:55:11.247Z,0.99
2022-11-21T19:57:40.222Z,0.87
2022-11-21T20:00:10.802Z,0.80
2022-11-21T20:02:39.716Z,0.72
2022-11-21T20:05:09.523Z,0.79
2022-11-21T20:07:38.450Z,0.80
2022-11-21T20:10:09.658Z,0.79
2022-11-21T20:12:38.423Z,0.83
2022-11-21T20:15:08.649Z,0.80
2022-11-21T20:17:37.451Z,0.66
2022-11-21T20:20:07.598Z,0.55
2022-11-21T20:22:36.681Z,0.56
2022-11-21T20:25:08.211Z,0.60
2022-11-21T20:27:36.958Z,0.54
2022-11-21T20:30:07.676Z,0.60
2022-11-21T20:32:36.475Z,0.65
2022-11-21T20:35:06.049Z,0.68
2022-11-21T20:37:34.902Z,0.69
2022-11-21T20:40:03.635Z,0.68
2022-11-21T20:42:34.567Z,0.65
2022-11-21T20:47:52.371Z,0.61
2022-11-21T20:50:58.894Z,0.61
2022-11-21T20:56:05.568Z,0.61
2022-11-21T20:58:38.386Z,0.60
2022-11-21T21:01:08.587Z,0.51
2022-11-21T21:03:38.608Z,0.48
2022-11-21T21:06:09.760Z,0.50
2022-11-21T21:08:39.464Z,0.50
2022-11-21T21:11:30.652Z,0.49
2022-11-21T21:14:02.391Z,0.48
2022-11-21T21:16:34.456Z,0.40
2022-11-21T21:19:04.018Z,0.36
2022-11-21T21:21:33.227Z,0.40
2022-11-21T21:24:05.418Z,0.31
2022-11-21T21:26:41.889Z,0.13
2022-11-21T21:29:16.990Z,0.20
2022-11-21T21:31:50.972Z,0.11
2022-11-21T21:34:22.762Z,0.15
2022-11-21T21:36:52.166Z,0.09
2022-11-21T21:39:21.898Z,0.21
2022-11-21T21:41:51.427Z,0.24
2022-11-21T21:44:22.234Z,0.28
2022-11-21T21:46:51.048Z,0.19
2022-11-21T21:49:21.122Z,0.20
2022-11-21T21:51:50.255Z,0.13
2022-11-21T21:54:21.948Z,0.11
2022-11-21T21:56:52.340Z,0.12
2022-11-21T21:59:22.565Z,0.10
2022-11-21T22:01:51.961Z,0.02
2022-11-21T22:04:20.774Z,-0.01
2022-11-21T22:06:49.940Z,0.00
2022-11-21T22:09:18.712Z,-0.03
2022-11-21T22:11:47.462Z,-0.03
2022-11-21T22:14:17.878Z,-0.01
2022-11-21T22:16:47.961Z,-0.09
2022-11-21T22:21:56.965Z,0.06
2022-11-21T22:24:26.274Z,-0.03
2022-11-21T22:26:54.385Z,0.03
2022-11-21T22:29:21.802Z,0.09
2022-11-21T22:31:50.154Z,0.13
2022-11-21T22:34:18.913Z,0.16
2022-11-21T22:36:47.826Z,0.12
2022-11-21T22:39:18.189Z,0.14
2022-11-21T22:41:46.962Z,0.15
2022-11-21T22:44:15.662Z,0.16
2022-11-21T22:46:44.435Z,0.17
2022-11-21T22:49:13.148Z,0.19
2022-11-21T22:51:41.867Z,0.08
2022-11-21T22:54:10.673Z,-0.03
2022-11-21T22:56:40.843Z,-0.01
2022-11-21T22:59:09.549Z,-0.06
2022-11-21T23:01:38.387Z,-0.01
2022-11-21T23:04:07.115Z,0.05
2022-11-21T23:06:35.940Z,0.02
2022-11-21T23:09:04.839Z,0.06
2022-11-21T23:11:40.303Z,-0.03
2022-11-21T23:14:10.962Z,-0.18
2022-11-21T23:16:39.738Z,-0.15
2022-11-21T23:19:08.653Z,-0.18
2022-11-21T23:21:37.389Z,-0.09
2022-11-21T23:24:07.157Z,-0.03
2022-11-21T23:26:36.365Z,-0.03
2022-11-21T23:29:08.840Z,-0.01
2022-11-21T23:31:39.304Z,-0.01
2022-11-21T23:34:11.189Z,0.02
2022-11-21T23:36:40.368Z,-0.05
2022-11-21T23:39:09.290Z,-0.11
2022-11-21T23:41:38.109Z,-0.25
2022-11-21T23:44:07.418Z,-0.15
2022-11-21T23:46:36.146Z,-0.29
2022-11-21T23:49:06.272Z,-0.24
2022-11-21T23:51:34.997Z,-0.18
2022-11-21T23:54:03.832Z,-0.19
2022-11-21T23:56:32.646Z,-0.19
2022-11-21T23:59:01.655Z,-0.39
